Terminal Aerodrome Forecast
Issued by NWS

Home | Current Version | Previous Version | Graphics & Text | Print | Product List | Glossary On
Versions: 1 2 3 4 5 6 7 8 9 10 11 12 13
000
FTUS43 KBIS 171720
TAFJMS
TAF
KJMS 171720Z 1718/1818 13013KT P6SM SCT120
     FM172200 09011KT P6SM BKN200
     FM180100 06009KT P6SM BKN120
     FM180800 04006KT P6SM OVC030
     FM181200 01007KT P6SM OVC015=

USA.gov is the U.S. government's official web portal to all federal, state and local government web resources and services.